Time;durP1;ratioP1;P1;durP2;ratioP2;P2;SDS_P1;SDS_P2;PMS_P1;PMS_P2;Temp;Humidity;BMP_temperature;BMP_pressure;BME280_temperature;BME280_humidity;BME280_pressure;Samples;Min_cycle;Max_cycle;Signal;HPM_P1;HPM_P2
2023/10/19 00:00:49;;;;;;;30.58;21.00;;;9.60;99.90;;;;;;5027896;28;20506;-40
2023/10/19 00:03:18;;;;;;;31.08;21.63;;;9.50;99.90;;;;;;5045740;28;20052;-36
2023/10/19 00:05:49;;;;;;;32.28;21.65;;;9.50;99.90;;;;;;5046016;28;20143;-37
2023/10/19 00:08:19;;;;;;;34.58;22.88;;;9.60;99.90;;;;;;5046827;28;20427;-39
2023/10/19 00:11:03;;;;;;;32.70;21.90;;;9.50;99.90;;;;;;5047260;28;20049;-39
2023/10/19 00:13:30;;;;;;;30.45;22.80;;;9.50;99.90;;;;;;5045742;28;20053;-40
2023/10/19 00:15:58;;;;;;;34.00;22.67;;;9.50;99.90;;;;;;5048064;28;20056;-39
2023/10/19 00:18:27;;;;;;;30.85;21.67;;;9.50;99.90;;;;;;5046610;28;20046;-42
2023/10/19 00:23:41;;;;;;;32.30;22.25;;;9.50;99.90;;;;;;5044892;28;20049;-39
2023/10/19 00:26:08;;;;;;;31.20;21.95;;;9.50;99.90;;;;;;5046531;28;20053;-40
2023/10/19 00:28:39;;;;;;;33.72;23.73;;;9.50;99.90;;;;;;5041646;28;20045;-39
2023/10/19 00:31:10;;;;;;;32.53;22.25;;;9.50;99.90;;;;;;5045955;28;20138;-40
2023/10/19 00:33:39;;;;;;;33.03;22.70;;;9.50;99.90;;;;;;5043459;28;20052;-40
2023/10/19 00:36:08;;;;;;;32.05;22.55;;;9.50;99.90;;;;;;5044378;28;20123;-43
2023/10/19 00:38:47;;;;;;;32.97;22.92;;;9.50;99.90;;;;;;5042681;28;20124;-38
2023/10/19 00:41:21;;;;;;;35.13;24.23;;;9.50;99.90;;;;;;5043964;28;20143;-42
2023/10/19 00:43:49;;;;;;;35.50;23.55;;;9.50;99.90;;;;;;5039567;28;20132;-39
2023/10/19 00:48:50;;;;;;;34.35;24.40;;;9.40;99.90;;;;;;5045818;28;20128;-41
2023/10/19 00:51:40;;;;;;;35.20;24.35;;;9.40;99.90;;;;;;5044156;28;20127;-40
2023/10/19 00:54:13;;;;;;;36.85;24.52;;;9.40;99.90;;;;;;5045658;28;20045;-40
2023/10/19 00:56:51;;;;;;;34.15;23.77;;;9.50;99.90;;;;;;5043661;28;20565;-38
2023/10/19 00:59:30;;;;;;;35.50;23.38;;;9.40;99.90;;;;;;5042339;28;20055;-40
2023/10/19 01:02:16;;;;;;;37.38;24.45;;;9.50;99.90;;;;;;5046217;28;20052;-39
2023/10/19 01:04:50;;;;;;;33.75;23.95;;;9.50;99.90;;;;;;5047560;28;20063;-41
2023/10/19 01:07:22;;;;;;;37.13;23.83;;;9.50;99.90;;;;;;5048871;28;20052;-37
2023/10/19 01:09:53;;;;;;;33.50;22.88;;;9.50;99.90;;;;;;5053118;28;20215;-40
2023/10/19 01:17:43;;;;;;;36.97;24.33;;;9.60;99.90;;;;;;5050671;28;20132;-37
2023/10/19 01:20:32;;;;;;;38.90;24.80;;;9.50;99.90;;;;;;5050399;28;20048;-40
2023/10/19 01:23:21;;;;;;;36.00;24.63;;;9.50;99.90;;;;;;5049022;28;20051;-39
2023/10/19 01:34:04;;;;;;;32.70;23.88;;;9.60;99.90;;;;;;5048683;28;20075;-39
2023/10/19 01:36:41;;;;;;;37.35;25.10;;;9.60;99.90;;;;;;5046928;28;20189;-39
2023/10/19 01:39:10;;;;;;;36.00;24.10;;;9.60;99.90;;;;;;5053121;28;20470;-40
2023/10/19 01:41:41;;;;;;;32.28;23.40;;;9.60;99.90;;;;;;5049629;28;20136;-41
2023/10/19 01:44:13;;;;;;;36.42;24.33;;;9.60;99.90;;;;;;5044243;28;20243;-41
2023/10/19 01:46:45;;;;;;;38.38;23.95;;;9.60;99.90;;;;;;5042835;28;20064;-41
2023/10/19 01:49:13;;;;;;;;;;;9.60;99.90;;;;;;5042701;28;20049;-38
2023/10/19 01:51:43;;;;;;;32.00;22.60;;;9.60;99.90;;;;;;5040499;28;20460;-37
2023/10/19 01:54:11;;;;;;;35.72;24.88;;;9.70;99.90;;;;;;5051466;28;20357;-41
2023/10/19 01:56:38;;;;;;;30.92;21.88;;;9.70;99.90;;;;;;5054764;28;20152;-39
2023/10/19 01:59:09;;;;;;;34.80;23.90;;;9.60;99.90;;;;;;5047524;28;20622;-40
2023/10/19 02:01:37;;;;;;;36.63;23.45;;;9.70;99.90;;;;;;5045429;28;20134;-39
2023/10/19 02:04:08;;;;;;;32.55;23.70;;;9.60;99.90;;;;;;5044028;28;20053;-41
2023/10/19 02:06:38;;;;;;;31.55;23.13;;;9.70;99.90;;;;;;5048132;28;20121;-40
2023/10/19 02:09:21;;;;;;;36.58;25.27;;;9.70;99.90;;;;;;5046251;28;20075;-38
2023/10/19 02:11:53;;;;;;;33.90;22.05;;;9.70;99.90;;;;;;5044884;28;20481;-41
2023/10/19 02:14:20;;;;;;;34.95;23.95;;;9.70;99.90;;;;;;5043673;28;20467;-38
2023/10/19 02:16:52;;;;;;;36.08;24.50;;;9.70;99.90;;;;;;5044615;28;20059;-41
2023/10/19 02:19:21;;;;;;;33.67;23.00;;;9.60;99.90;;;;;;5046307;28;20498;-38
2023/10/19 02:21:53;;;;;;;36.85;24.80;;;9.60;99.90;;;;;;5046544;28;20041;-38
2023/10/19 02:24:21;;;;;;;34.22;23.17;;;9.60;99.90;;;;;;5052294;28;20181;-39
2023/10/19 02:26:55;;;;;;;34.97;25.40;;;9.60;99.90;;;;;;5053629;28;20112;-41
2023/10/19 02:29:23;;;;;;;34.70;24.00;;;9.60;99.90;;;;;;5048998;28;20053;-38
2023/10/19 02:31:50;;;;;;;34.92;24.33;;;9.60;99.90;;;;;;5050679;28;20041;-41
2023/10/19 02:34:18;;;;;;;34.70;23.58;;;9.60;99.90;;;;;;5038135;28;20126;-37
2023/10/19 02:36:47;;;;;;;35.85;24.88;;;9.60;99.90;;;;;;5039468;28;20048;-38
2023/10/19 02:39:17;;;;;;;34.33;24.20;;;9.60;99.90;;;;;;5038731;28;20124;-40
2023/10/19 02:41:49;;;;;;;37.20;25.42;;;9.60;99.90;;;;;;5044048;28;20036;-39
2023/10/19 02:46:49;;;;;;;32.70;23.40;;;9.60;99.90;;;;;;5044903;28;20095;-38
2023/10/19 02:49:18;;;;;;;36.53;24.80;;;9.50;99.90;;;;;;5043248;28;20041;-38
2023/10/19 02:51:49;;;;;;;36.70;25.67;;;9.60;99.90;;;;;;5044931;28;20378;-40
2023/10/19 02:54:22;;;;;;;35.88;25.17;;;9.60;99.90;;;;;;5041662;28;20076;-37
2023/10/19 02:56:56;;;;;;;35.03;24.02;;;9.60;99.90;;;;;;5024630;28;20125;-38
2023/10/19 02:59:25;;;;;;;39.05;24.83;;;9.60;99.90;;;;;;5040936;28;20164;-40
2023/10/19 03:04:41;;;;;;;34.80;26.05;;;9.70;99.90;;;;;;5039747;28;20048;-39
2023/10/19 03:07:13;;;;;;;34.97;24.48;;;9.70;99.90;;;;;;5042279;28;20158;-41
2023/10/19 03:09:53;;;;;;;36.88;25.67;;;9.70;99.90;;;;;;5055291;28;20083;-41
2023/10/19 03:12:25;;;;;;;39.40;26.13;;;9.80;99.90;;;;;;5059627;28;20059;-41
2023/10/19 03:14:52;;;;;;;34.08;24.42;;;9.80;99.90;;;;;;5060733;28;20053;-41
2023/10/19 03:17:21;;;;;;;41.08;28.23;;;9.80;99.90;;;;;;5045091;28;20366;-41
2023/10/19 03:19:48;;;;;;;50.30;37.70;;;9.80;99.90;;;;;;5039501;28;20361;-39
2023/10/19 03:22:17;;;;;;;48.75;35.10;;;9.80;99.90;;;;;;5042470;28;20045;-39
2023/10/19 03:24:44;;;;;;;41.88;31.00;;;9.80;99.90;;;;;;5046063;28;20049;-39
2023/10/19 03:27:22;;;;;;;39.15;27.38;;;9.80;99.90;;;;;;5043182;28;20135;-39
2023/10/19 03:29:55;;;;;;;39.63;26.75;;;9.80;99.90;;;;;;5040590;28;20422;-41
2023/10/19 03:32:28;;;;;;;36.65;25.33;;;9.80;99.90;;;;;;5039832;28;20062;-40
2023/10/19 03:34:56;;;;;;;36.47;24.50;;;9.80;99.90;;;;;;5044286;28;20398;-39
2023/10/19 03:37:25;;;;;;;37.88;25.83;;;9.80;99.90;;;;;;5051057;28;20048;-42
2023/10/19 03:39:56;;;;;;;36.40;25.20;;;9.80;99.90;;;;;;5045511;28;20591;-41
2023/10/19 03:42:33;;;;;;;35.67;24.52;;;9.80;99.90;;;;;;5039440;28;20148;-41
2023/10/19 03:45:05;;;;;;;37.42;26.00;;;9.80;99.90;;;;;;5042772;28;20505;-39
2023/10/19 03:47:38;;;;;;;38.15;26.13;;;9.80;99.90;;;;;;5046029;28;20056;-40
2023/10/19 03:50:14;;;;;;;34.33;24.77;;;9.80;99.90;;;;;;5044659;28;20033;-38
2023/10/19 03:52:41;;;;;;;36.13;25.25;;;9.80;99.90;;;;;;5043442;28;20413;-40
2023/10/19 03:55:15;;;;;;;38.40;26.40;;;9.80;99.90;;;;;;5042623;28;20049;-38
2023/10/19 03:57:46;;;;;;;35.47;24.67;;;9.80;99.90;;;;;;5038804;28;20037;-40
2023/10/19 04:00:16;;;;;;;39.70;26.08;;;9.80;99.90;;;;;;5038584;28;20037;-38
2023/10/19 04:02:46;;;;;;;38.00;26.90;;;9.80;99.90;;;;;;5042790;28;20045;-38
2023/10/19 04:05:22;;;;;;;39.03;26.17;;;9.70;99.90;;;;;;5041370;28;20056;-39
2023/10/19 04:07:51;;;;;;;41.17;27.17;;;9.70;99.90;;;;;;5046201;28;20040;-37
2023/10/19 04:10:44;;;;;;;38.63;27.67;;;9.70;99.90;;;;;;5045357;28;20056;-39
2023/10/19 04:13:09;;;;;;;36.08;25.17;;;9.70;99.90;;;;;;5048799;28;20044;-39
2023/10/19 04:15:41;;;;;;;38.53;27.65;;;9.70;99.90;;;;;;5041144;28;20033;-41
2023/10/19 04:18:09;;;;;;;37.85;25.20;;;9.70;99.90;;;;;;5048870;28;20116;-40
2023/10/19 04:23:18;;;;;;;36.75;26.17;;;9.70;99.90;;;;;;5054964;28;20076;-38
2023/10/19 04:25:45;;;;;;;35.15;25.83;;;9.80;99.90;;;;;;5059170;28;20450;-37
2023/10/19 04:28:14;;;;;;;38.55;27.23;;;9.80;99.90;;;;;;5053104;28;20049;-41
2023/10/19 04:30:41;;;;;;;40.08;27.10;;;9.80;99.90;;;;;;5055180;28;20049;-39
2023/10/19 04:33:09;;;;;;;36.17;26.25;;;9.80;99.90;;;;;;5051637;28;20516;-38
2023/10/19 04:35:37;;;;;;;41.35;26.25;;;9.70;99.90;;;;;;5050150;28;20520;-38
2023/10/19 04:38:08;;;;;;;39.97;27.38;;;9.80;99.90;;;;;;5050339;28;20041;-38
2023/10/19 04:40:35;;;;;;;40.30;27.15;;;9.80;99.90;;;;;;5049284;28;20090;-40
2023/10/19 04:43:05;;;;;;;37.30;26.20;;;9.80;99.90;;;;;;5048100;28;20070;-38
2023/10/19 04:45:33;;;;;;;38.85;26.77;;;9.80;99.90;;;;;;5045823;28;20401;-38
2023/10/19 04:48:02;;;;;;;35.35;24.95;;;9.80;99.90;;;;;;5047573;28;20048;-39
2023/10/19 04:50:30;;;;;;;48.08;33.63;;;9.80;99.90;;;;;;5045894;28;20127;-40
2023/10/19 04:52:57;;;;;;;61.15;39.22;;;9.80;99.90;;;;;;5057505;28;20112;-41
2023/10/19 04:55:25;;;;;;;50.20;33.40;;;9.80;99.90;;;;;;5055084;28;20455;-40
2023/10/19 04:57:52;;;;;;;48.47;32.50;;;9.80;99.90;;;;;;5048008;28;20045;-39
2023/10/19 05:00:20;;;;;;;40.72;29.17;;;9.80;99.90;;;;;;5047285;28;20072;-38
2023/10/19 05:02:49;;;;;;;43.58;28.15;;;9.70;99.90;;;;;;5047334;28;20033;-38
2023/10/19 05:05:17;;;;;;;39.05;27.17;;;9.70;99.90;;;;;;5046414;28;20045;-40
2023/10/19 05:07:44;;;;;;;40.28;26.75;;;9.70;99.90;;;;;;5049057;28;20041;-40
2023/10/19 05:10:12;;;;;;;41.25;27.75;;;9.70;99.90;;;;;;5048765;28;20232;-40
2023/10/19 05:12:39;;;;;;;50.05;35.25;;;9.70;99.90;;;;;;5053358;28;20045;-38
2023/10/19 05:15:08;;;;;;;41.63;29.52;;;9.70;99.90;;;;;;5055819;28;20045;-38
2023/10/19 05:17:35;;;;;;;41.83;27.83;;;9.70;99.90;;;;;;5052418;28;20037;-37
2023/10/19 05:20:05;;;;;;;45.28;28.52;;;9.70;99.90;;;;;;5048469;28;20061;-41
2023/10/19 05:22:32;;;;;;;39.50;27.15;;;9.70;99.90;;;;;;5047038;28;20133;-38
2023/10/19 05:25:01;;;;;;;39.83;28.80;;;9.70;99.90;;;;;;5047482;28;20483;-40
2023/10/19 05:27:28;;;;;;;41.03;28.17;;;9.70;99.90;;;;;;5044351;28;20585;-37
2023/10/19 05:29:56;;;;;;;40.15;28.77;;;9.60;99.90;;;;;;5047066;28;20110;-37
2023/10/19 05:32:24;;;;;;;42.63;27.95;;;9.60;99.90;;;;;;5047265;28;20574;-41
2023/10/19 05:34:52;;;;;;;39.30;27.67;;;9.60;99.90;;;;;;5041938;28;20121;-39
2023/10/19 05:37:19;;;;;;;40.35;29.25;;;9.60;99.90;;;;;;5043945;28;20517;-36
2023/10/19 05:39:46;;;;;;;42.10;28.65;;;9.60;99.90;;;;;;5047215;28;20416;-40
2023/10/19 05:42:14;;;;;;;42.13;29.00;;;9.60;99.90;;;;;;5042086;28;20052;-38
2023/10/19 05:44:41;;;;;;;42.63;28.40;;;9.60;99.90;;;;;;5042286;28;20053;-38
2023/10/19 05:47:08;;;;;;;42.05;29.20;;;9.70;99.90;;;;;;5046510;28;20075;-39
2023/10/19 05:49:35;;;;;;;43.08;29.63;;;9.70;99.90;;;;;;5044863;28;20049;-37
2023/10/19 05:52:03;;;;;;;45.60;30.15;;;9.70;99.90;;;;;;5047060;28;20132;-38
2023/10/19 05:54:30;;;;;;;40.42;28.55;;;9.80;99.90;;;;;;5039561;28;20049;-39
2023/10/19 05:56:58;;;;;;;43.15;28.98;;;9.80;99.90;;;;;;5046315;28;20049;-37
2023/10/19 05:59:26;;;;;;;41.20;28.98;;;9.80;99.90;;;;;;5045935;28;20079;-35
2023/10/19 06:01:54;;;;;;;38.97;28.67;;;9.80;99.90;;;;;;5046949;28;20114;-39
2023/10/19 06:04:21;;;;;;;37.58;27.17;;;9.70;99.90;;;;;;5038789;28;20724;-36
2023/10/19 06:06:49;;;;;;;37.03;27.30;;;9.70;99.90;;;;;;5042117;28;20063;-36
2023/10/19 06:09:17;;;;;;;40.25;27.27;;;9.60;99.90;;;;;;5037536;28;20486;-39
2023/10/19 06:11:45;;;;;;;37.58;26.95;;;9.60;99.90;;;;;;5040331;28;20049;-36
2023/10/19 06:14:13;;;;;;;37.72;27.15;;;9.60;99.90;;;;;;5035481;28;20052;-40
2023/10/19 06:16:40;;;;;;;41.60;28.35;;;9.60;99.90;;;;;;5034843;28;20037;-38
2023/10/19 06:19:08;;;;;;;42.85;27.48;;;9.60;99.90;;;;;;5039866;28;20091;-40
2023/10/19 06:21:36;;;;;;;40.42;27.35;;;9.60;99.90;;;;;;5044469;28;20041;-41
2023/10/19 06:24:04;;;;;;;37.65;26.30;;;9.60;99.90;;;;;;5043282;28;20426;-38
2023/10/19 06:26:36;;;;;;;39.60;27.23;;;9.60;99.90;;;;;;5043883;28;20037;-41
2023/10/19 06:29:03;;;;;;;36.20;26.30;;;9.60;99.90;;;;;;5048538;28;20067;-40
2023/10/19 06:31:31;;;;;;;39.67;28.10;;;9.60;99.90;;;;;;5045172;28;20273;-39
2023/10/19 06:34:00;;;;;;;50.75;31.38;;;9.70;99.90;;;;;;5042669;28;20370;-39
2023/10/19 06:36:31;;;;;;;39.50;26.75;;;9.70;99.90;;;;;;5044143;28;20095;-39
2023/10/19 06:38:59;;;;;;;36.70;25.48;;;9.80;99.90;;;;;;5047410;28;20098;-39
2023/10/19 06:41:26;;;;;;;39.25;26.65;;;9.90;99.90;;;;;;5042063;28;20048;-40
2023/10/19 07:20:50;;;;;;;35.20;25.00;;;11.20;99.90;;;;;;5045484;28;20043;-39
2023/10/19 07:23:18;;;;;;;36.20;23.25;;;11.30;99.90;;;;;;5042293;28;20044;-41
2023/10/19 07:25:54;;;;;;;35.92;23.08;;;11.40;99.90;;;;;;5047115;28;20063;-38
2023/10/19 07:28:26;;;;;;;34.50;24.17;;;11.50;99.90;;;;;;5041361;28;20041;-41
2023/10/19 07:30:54;;;;;;;30.92;22.65;;;11.50;99.90;;;;;;5044931;28;20106;-40
2023/10/19 07:33:21;;;;;;;28.92;22.67;;;11.60;99.90;;;;;;5037103;28;20080;-41
2023/10/19 07:35:59;;;;;;;31.05;22.83;;;11.60;99.90;;;;;;5040764;28;20041;-42
2023/10/19 07:38:33;;;;;;;44.97;31.65;;;11.60;99.90;;;;;;5037853;28;20047;-40
2023/10/19 07:41:01;;;;;;;39.20;24.70;;;11.60;99.90;;;;;;5041471;28;20069;-39
2023/10/19 07:43:28;;;;;;;32.05;24.08;;;11.70;99.90;;;;;;5045895;28;20037;-39
2023/10/19 07:45:57;;;;;;;31.77;23.33;;;11.60;99.90;;;;;;5049519;28;20048;-40
2023/10/19 07:48:24;;;;;;;30.20;20.98;;;11.70;99.90;;;;;;5045051;28;20103;-39
2023/10/19 07:50:53;;;;;;;31.98;23.63;;;11.80;99.90;;;;;;5047830;28;20087;-39
2023/10/19 07:53:21;;;;;;;28.70;21.15;;;11.90;99.90;;;;;;5044008;28;20064;-42
2023/10/19 07:55:48;;;;;;;33.35;22.52;;;12.00;99.90;;;;;;5048429;28;20052;-38
2023/10/19 07:58:16;;;;;;;35.97;26.80;;;12.10;99.90;;;;;;5059652;28;20109;-39
2023/10/19 08:00:46;;;;;;;35.75;25.85;;;12.20;99.90;;;;;;5063830;28;20049;-39
2023/10/19 08:03:15;;;;;;;34.33;25.40;;;12.30;99.90;;;;;;5053840;28;20128;-38
2023/10/19 08:05:43;;;;;;;37.63;25.85;;;12.60;99.90;;;;;;5047509;28;20060;-40
2023/10/19 08:08:12;;;;;;;32.30;23.70;;;12.80;99.90;;;;;;5052764;28;20056;-37
2023/10/19 08:10:40;;;;;;;37.25;23.70;;;13.10;99.90;;;;;;5053014;28;20182;-38
2023/10/19 08:13:07;;;;;;;33.97;22.65;;;13.30;99.90;;;;;;5060023;28;20049;-38
2023/10/19 08:15:35;;;;;;;29.73;22.35;;;13.30;99.90;;;;;;5056028;28;20045;-39
2023/10/19 08:32:23;;;;;;;32.90;22.40;;;12.90;99.90;;;;;;5061127;28;20032;-41
2023/10/19 08:34:50;;;;;;;26.58;19.58;;;13.00;99.90;;;;;;5062136;28;20459;-41
2023/10/19 08:37:19;;;;;;;31.85;23.80;;;13.10;99.90;;;;;;5066278;28;20136;-40
2023/10/19 08:39:45;;;;;;;29.08;23.00;;;13.10;99.90;;;;;;5053725;28;20146;-39
2023/10/19 08:42:13;;;;;;;29.15;22.27;;;13.20;99.90;;;;;;5041860;28;20048;-41
2023/10/19 08:44:41;;;;;;;27.88;21.02;;;13.30;99.90;;;;;;5043614;28;20077;-39
2023/10/19 08:47:08;;;;;;;33.90;22.85;;;13.50;99.90;;;;;;5043954;28;20049;-37
2023/10/19 08:49:36;;;;;;;27.45;21.48;;;13.70;99.90;;;;;;5051043;28;20381;-38
2023/10/19 08:52:06;;;;;;;27.33;20.98;;;13.90;99.90;;;;;;5044259;28;20033;-38
2023/10/19 08:54:33;;;;;;;25.92;20.83;;;13.90;99.90;;;;;;5046360;28;20507;-40
2023/10/19 08:57:01;;;;;;;29.35;21.35;;;14.10;99.90;;;;;;5036817;28;20517;-40
2023/10/19 08:59:28;;;;;;;27.88;21.58;;;14.10;99.90;;;;;;5045328;28;20405;-39
2023/10/19 09:02:02;;;;;;;27.50;20.88;;;14.00;99.90;;;;;;5049869;28;20045;-38
2023/10/19 09:04:30;;;;;;;26.88;21.10;;;14.00;99.90;;;;;;5046014;28;20056;-39
2023/10/19 09:06:57;;;;;;;30.67;22.45;;;14.10;99.90;;;;;;5048427;28;20065;-39
2023/10/19 09:09:27;;;;;;;30.45;22.30;;;14.10;99.90;;;;;;5041938;28;20048;-37
2023/10/19 09:11:54;;;;;;;28.25;21.05;;;14.20;99.90;;;;;;5060369;28;20065;-38
2023/10/19 09:14:33;;;;;;;25.67;20.48;;;14.50;99.90;;;;;;5053635;28;20110;-41
2023/10/19 09:17:00;;;;;;;26.55;21.77;;;14.70;99.90;;;;;;5059543;28;20350;-40
2023/10/19 09:19:42;;;;;;;30.77;20.75;;;14.70;99.90;;;;;;5055515;28;20118;-39
2023/10/19 09:22:18;;;;;;;27.83;22.02;;;15.00;99.90;;;;;;5052776;28;20175;-40
2023/10/19 09:24:46;;;;;;;26.08;20.85;;;15.10;99.90;;;;;;5043783;28;20036;-39
2023/10/19 09:27:17;;;;;;;28.95;21.40;;;15.20;99.90;;;;;;5038530;28;20046;-38
2023/10/19 09:29:45;;;;;;;24.83;19.10;;;15.10;99.90;;;;;;5043808;28;20041;-41
2023/10/19 09:32:15;;;;;;;25.55;20.67;;;15.20;99.90;;;;;;5047581;28;20296;-38
2023/10/19 09:34:44;;;;;;;29.75;20.45;;;15.30;99.90;;;;;;5043285;28;20045;-41
2023/10/19 09:37:12;;;;;;;29.50;19.67;;;15.20;99.90;;;;;;5044455;28;20409;-40
2023/10/19 09:39:43;;;;;;;25.25;19.88;;;15.20;99.90;;;;;;5043276;28;20333;-39
2023/10/19 09:42:11;;;;;;;25.05;19.98;;;15.20;99.90;;;;;;5046603;28;20072;-37
2023/10/19 09:44:41;;;;;;;23.85;20.27;;;15.30;99.90;;;;;;5047928;28;20045;-38
2023/10/19 09:47:14;;;;;;;24.55;18.90;;;15.40;99.90;;;;;;5049911;28;20044;-39
2023/10/19 09:49:45;;;;;;;25.88;19.05;;;15.50;99.90;;;;;;5046382;28;20140;-39
2023/10/19 09:52:14;;;;;;;25.23;19.52;;;15.40;99.90;;;;;;5046968;28;20055;-39
2023/10/19 09:55:03;;;;;;;25.15;20.38;;;15.40;99.90;;;;;;5046924;28;20341;-36
2023/10/19 09:57:46;;;;;;;24.30;19.17;;;15.20;99.90;;;;;;5046205;28;20128;-41
2023/10/19 10:00:14;;;;;;;27.65;20.38;;;15.20;99.90;;;;;;5046362;28;20106;-38
2023/10/19 10:02:46;;;;;;;22.38;18.98;;;15.40;99.90;;;;;;5045512;28;20063;-39
2023/10/19 10:05:45;;;;;;;24.92;19.63;;;15.50;99.90;;;;;;5052992;28;20045;-38
2023/10/19 10:08:18;;;;;;;25.52;20.42;;;15.70;99.90;;;;;;5056024;28;20041;-37
2023/10/19 10:10:46;;;;;;;23.67;19.27;;;15.60;99.90;;;;;;5044348;28;20065;-37
2023/10/19 10:13:30;;;;;;;26.60;20.35;;;15.70;99.90;;;;;;5042936;28;20037;-41
2023/10/19 10:15:59;;;;;;;21.67;17.95;;;15.80;99.90;;;;;;5048095;28;20409;-38
2023/10/19 10:18:35;;;;;;;24.75;19.55;;;15.90;99.90;;;;;;5046344;28;20052;-38
2023/10/19 10:21:15;;;;;;;25.40;19.58;;;15.80;99.90;;;;;;5051201;28;20066;-38
2023/10/19 10:23:57;;;;;;;24.58;19.02;;;15.60;99.90;;;;;;5045808;28;20073;-38
2023/10/19 10:26:29;;;;;;;24.67;19.55;;;15.60;99.90;;;;;;5046495;28;20052;-41
2023/10/19 10:29:26;;;;;;;29.83;24.48;;;15.60;99.90;;;;;;5047332;28;20137;-38
2023/10/19 10:31:53;;;;;;;20.98;18.27;;;15.80;99.90;;;;;;5043513;28;20397;-38
2023/10/19 10:34:42;;;;;;;24.00;19.48;;;16.00;99.90;;;;;;5045773;28;20421;-39
2023/10/19 10:37:11;;;;;;;24.50;19.65;;;16.10;99.90;;;;;;5046877;28;20087;-39
2023/10/19 10:39:40;;;;;;;21.88;17.98;;;16.00;99.90;;;;;;5053136;28;20037;-39
2023/10/19 10:42:09;;;;;;;27.60;19.73;;;16.10;99.90;;;;;;5046655;28;20037;-37
2023/10/19 10:44:40;;;;;;;24.58;19.45;;;16.00;99.90;;;;;;5053807;28;20045;-41
2023/10/19 10:47:16;;;;;;;25.42;19.90;;;16.10;99.90;;;;;;5056047;28;20052;-39
2023/10/19 10:49:52;;;;;;;25.75;19.42;;;16.30;99.90;;;;;;5050606;28;20053;-39
2023/10/19 10:52:34;;;;;;;22.63;18.00;;;16.50;99.90;;;;;;5049271;28;20052;-39
2023/10/19 10:55:13;;;;;;;21.45;18.73;;;16.70;99.90;;;;;;5057235;28;20571;-37
2023/10/19 10:57:41;;;;;;;24.05;18.85;;;16.80;99.90;;;;;;5055093;28;20041;-38
2023/10/19 11:00:17;;;;;;;25.80;19.35;;;17.00;99.90;;;;;;5047258;28;20037;-42
2023/10/19 11:02:47;;;;;;;32.03;23.35;;;17.10;99.90;;;;;;5046650;28;20037;-39
2023/10/19 11:05:15;;;;;;;23.60;18.20;;;17.50;99.90;;;;;;5044865;28;20136;-41
2023/10/19 11:08:06;;;;;;;19.25;15.85;;;17.80;99.90;;;;;;5042242;28;20394;-38
2023/10/19 11:10:34;;;;;;;21.45;17.75;;;17.90;99.90;;;;;;5050729;28;20486;-37
2023/10/19 11:13:07;;;;;;;22.35;18.15;;;17.80;99.90;;;;;;5052134;28;20051;-39
2023/10/19 11:15:36;;;;;;;24.00;19.88;;;17.60;99.90;;;;;;5051399;28;20118;-42
2023/10/19 11:18:07;;;;;;;19.55;17.00;;;18.00;99.90;;;;;;5050804;28;20037;-42
2023/10/19 11:20:35;;;;;;;25.20;17.90;;;17.90;99.90;;;;;;5054322;28;20102;-38
2023/10/19 11:23:02;;;;;;;21.85;17.10;;;17.90;99.90;;;;;;5047635;28;20138;-39
2023/10/19 11:25:31;;;;;;;21.30;17.70;;;17.90;99.90;;;;;;5045218;28;20052;-42
2023/10/19 11:28:01;;;;;;;22.85;17.65;;;18.00;99.90;;;;;;5051284;28;20049;-40
2023/10/19 11:30:31;;;;;;;23.85;17.13;;;18.30;99.90;;;;;;5049793;28;20120;-39
2023/10/19 11:33:00;;;;;;;25.70;17.63;;;18.60;99.90;;;;;;5056130;28;20529;-39
2023/10/19 11:35:30;;;;;;;18.75;15.98;;;18.80;99.90;;;;;;5048926;28;20129;-38
2023/10/19 11:38:02;;;;;;;23.02;18.13;;;18.80;99.90;;;;;;5051222;28;20120;-40
2023/10/19 11:40:29;;;;;;;;;;;18.90;99.90;;;;;;5052941;28;20054;-38
2023/10/19 11:42:56;;;;;;;19.13;16.75;;;18.90;99.90;;;;;;5050190;28;20019;-40
2023/10/19 11:45:23;;;;;;;22.95;17.23;;;19.30;99.90;;;;;;5054001;28;20072;-41
2023/10/19 11:47:50;;;;;;;22.35;17.17;;;19.50;99.90;;;;;;5061356;28;20060;-40
2023/10/19 11:50:19;;;;;;;17.85;15.70;;;19.60;99.90;;;;;;5058367;28;20057;-39
2023/10/19 11:52:46;;;;;;;18.85;15.13;;;19.60;99.90;;;;;;5056640;28;20076;-37
2023/10/19 11:55:15;;;;;;;19.15;15.73;;;19.60;99.90;;;;;;5048503;28;20045;-40
2023/10/19 11:57:43;;;;;;;18.88;15.90;;;19.50;99.90;;;;;;5048917;28;20033;-39
2023/10/19 12:00:14;;;;;;;17.13;15.23;;;19.40;99.90;;;;;;5057359;28;20075;-40
2023/10/19 12:02:41;;;;;;;16.15;13.07;;;19.70;99.90;;;;;;5056282;28;20055;-41
2023/10/19 12:05:12;;;;;;;22.63;15.73;;;19.80;99.90;;;;;;5057511;28;20057;-40
2023/10/19 12:07:39;;;;;;;17.27;15.38;;;19.70;99.90;;;;;;5060026;28;20067;-39
2023/10/19 12:10:09;;;;;;;16.27;14.57;;;19.60;99.90;;;;;;5057818;28;20416;-40
2023/10/19 12:12:37;;;;;;;15.90;13.65;;;19.40;99.90;;;;;;5052751;28;20104;-40
2023/10/19 12:15:25;;;;;;;16.73;14.40;;;19.40;99.90;;;;;;5051860;28;20044;-38
2023/10/19 12:17:54;;;;;;;21.58;15.18;;;19.20;99.90;;;;;;5054329;28;20045;-39
2023/10/19 12:20:21;;;;;;;20.45;15.93;;;19.10;99.90;;;;;;5061359;28;20037;-39
2023/10/19 12:22:53;;;;;;;15.15;13.50;;;19.00;99.90;;;;;;5062627;28;20137;-41
2023/10/19 12:25:28;;;;;;;20.60;14.02;;;19.00;99.90;;;;;;5060759;28;20049;-40
2023/10/19 12:28:13;;;;;;;17.35;14.82;;;19.00;99.90;;;;;;5057834;28;20059;-37
2023/10/19 12:30:42;;;;;;;18.45;14.85;;;18.80;99.90;;;;;;5058045;28;20049;-40
2023/10/19 12:33:12;;;;;;;23.52;17.70;;;18.60;99.90;;;;;;5058409;28;20080;-40
2023/10/19 12:35:59;;;;;;;24.27;17.52;;;18.50;99.90;;;;;;5056192;28;20040;-40
2023/10/19 12:38:27;;;;;;;23.73;19.48;;;18.50;99.90;;;;;;5056021;28;20044;-40
2023/10/19 12:40:54;;;;;;;21.63;15.20;;;18.40;99.90;;;;;;5056605;28;20057;-39
2023/10/19 12:43:30;;;;;;;20.48;15.60;;;18.40;99.90;;;;;;5058879;28;20103;-42
2023/10/19 12:45:57;;;;;;;19.50;14.43;;;18.40;99.90;;;;;;5062091;28;20033;-39
2023/10/19 12:48:33;;;;;;;21.88;17.52;;;18.30;99.90;;;;;;5055679;28;20053;-38
2023/10/19 12:51:07;;;;;;;20.17;16.83;;;18.20;99.90;;;;;;5059270;28;20060;-41
2023/10/19 12:53:34;;;;;;;20.25;15.70;;;18.20;99.90;;;;;;5058765;28;20420;-39
2023/10/19 12:56:03;;;;;;;16.52;14.00;;;18.10;99.90;;;;;;5058984;28;20569;-42
2023/10/19 12:58:31;;;;;;;17.75;14.43;;;18.40;99.90;;;;;;5058722;28;20057;-41
2023/10/19 13:00:58;;;;;;;18.40;15.75;;;18.60;99.90;;;;;;5059661;28;20068;-38
2023/10/19 13:03:32;;;;;;;17.08;15.25;;;18.80;99.90;;;;;;5062335;28;20045;-39
2023/10/19 13:05:59;;;;;;;17.30;14.43;;;18.70;99.90;;;;;;5059929;28;20048;-41
2023/10/19 13:08:30;;;;;;;19.75;15.52;;;18.50;99.90;;;;;;5056468;28;20087;-41
2023/10/19 13:10:57;;;;;;;19.10;13.65;;;18.30;99.90;;;;;;5057642;28;20060;-38
2023/10/19 13:13:39;;;;;;;17.40;14.27;;;18.10;99.90;;;;;;5053837;28;20075;-47
2023/10/19 13:16:06;;;;;;;16.90;14.27;;;17.90;99.90;;;;;;5051205;28;20396;-41
2023/10/19 13:18:33;;;;;;;17.80;14.93;;;17.80;99.90;;;;;;5060447;28;20037;-37
2023/10/19 13:21:04;;;;;;;20.65;14.40;;;17.60;99.90;;;;;;5059463;28;20048;-43
2023/10/19 13:23:38;;;;;;;28.58;15.85;;;17.50;99.90;;;;;;5055771;28;20409;-39
2023/10/19 13:26:17;;;;;;;16.70;14.77;;;17.30;99.90;;;;;;5057921;28;20053;-41
2023/10/19 13:28:45;;;;;;;19.75;14.75;;;17.10;99.90;;;;;;5055053;28;20068;-41
2023/10/19 13:31:15;;;;;;;19.08;15.35;;;16.90;99.90;;;;;;5054532;28;20072;-41
2023/10/19 13:33:44;;;;;;;21.00;15.50;;;16.80;99.90;;;;;;5050664;28;20526;-40
2023/10/19 13:36:12;;;;;;;20.77;16.85;;;16.70;99.90;;;;;;5051429;28;20059;-39
2023/10/19 13:38:40;;;;;;;21.05;16.88;;;16.60;99.90;;;;;;5048443;28;20049;-39
2023/10/19 13:41:09;;;;;;;19.35;15.32;;;16.50;99.90;;;;;;5049267;28;21362;-39
2023/10/19 13:43:38;;;;;;;19.65;16.17;;;16.50;99.90;;;;;;5051263;28;20037;-39
2023/10/19 13:46:17;;;;;;;24.35;18.00;;;16.50;99.90;;;;;;5043503;28;20102;-40
2023/10/19 13:48:45;;;;;;;18.88;14.88;;;16.50;99.90;;;;;;5051204;28;20060;-38
2023/10/19 13:51:18;;;;;;;19.10;13.90;;;16.50;99.90;;;;;;5053234;28;20053;-38
2023/10/19 13:53:46;;;;;;;18.15;14.27;;;16.50;99.90;;;;;;5049484;28;20128;-39
2023/10/19 13:56:16;;;;;;;17.77;14.40;;;16.50;99.90;;;;;;5056656;28;20044;-38
2023/10/19 13:58:46;;;;;;;15.40;13.10;;;16.40;99.90;;;;;;5057891;28;20037;-39
2023/10/19 14:01:15;;;;;;;17.92;14.20;;;16.40;99.90;;;;;;5060514;28;20418;-39
2023/10/19 14:03:44;;;;;;;20.45;14.15;;;16.40;99.90;;;;;;5057193;28;20069;-41
2023/10/19 14:06:13;;;;;;;15.93;13.95;;;16.30;99.90;;;;;;5053080;28;20051;-42
2023/10/19 14:08:40;;;;;;;18.17;13.90;;;16.30;99.90;;;;;;5054767;28;20100;-40